Cartagena de Indias, Colombia

8:44 AM COT en Noviembre 26, 2014 (GMT -0500)
Rafael Nunez | Change Station
CLOSE
Current Station
Aeropuerto
Location: Cartagena,
Altura: 39 ft
Estaciones meteorológicas cercanas

Alt 39 ft 10.45 °N, 75.52 °W | Updated 44 minutes ago

Scattered Clouds
Nubes dispersas
84 ° F
Sensación térmica 96 ° F
N
4
Viento Variable Viento desde NO

Hoy
Alta -- | Baja -- ° F
--% Posibilidad de precipitaciones
Ayer
Alta -- | Baja -- ° F
Precip. -- pul
6:01 AM 5:36 PM
Creciente, 19% visible
Presión 29.84 pul
Visibilidad 6.2 Millas
Nubes Baja 1500 ft
Nubes dispersas 8000 ft
Índice de calor 96 ° F
Punto de rocío 79 ° F
Humedad 84%
Precipitaciones 0.00 pul
Espesor de la nieve No disponible.
UV 3 de una escala de 12
Polen No disponible.
Calidad del aire No disponible.
Flu Activity No disponible.
METAR SKCG 261300Z 31003KT 9999 FEW015 SCT080 29/26 A2984

More Conditions Fewer Conditions

Presión 29.84 pul
Visibilidad 6.2 Millas
Nubes Baja 1500 ft
Nubes dispersas 8000 ft
Índice de calor 96 ° F
Punto de rocío 79 ° F
Humedad 84%
Precipitaciones 0.00 pul
Espesor de la nieve No disponible.
UV 3 de una escala de 12
Polen No disponible.
Calidad del aire No disponible.
Flu Activity No disponible.
METAR SKCG 261300Z 31003KT 9999 FEW015 SCT080 29/26 A2984

More Conditions Fewer Conditions

10-Day Weather Forecast

Almanac

Astronomía

Nov. 26, 2014 Salida Puesta
Hora real
Crepúsculo civil
Crepúsculo náutico
Crepúsculo astronómico
Luna
Horas de luz
Horas de luz
Tomorrow will be .
, % of the Moon is Illuminated

Extremos de hoy

Máximos del país Bajas del país

Community

WunderPhotos

Upload Photos

1,773,738 ¡fotos cargadas!

WunderBlogs® & News

Nearby

Calidad del aire

  Calidad del aire Índice AQ Contaminante
Not available.

Grosos de nieve

Estación Profundido Altura

Actividad de terremotos

Ciudad Distance Mag. Tiempo y dato
Magnitud mínima muestra es 2,5.

Temperaturas de aguas costeras

Lugar Temperatura

Estaciones meteorológicas cercanas